Time;durP1;ratioP1;P1;durP2;ratioP2;P2;SDS_P1;SDS_P2;PMS_P1;PMS_P2;Temp;Humidity;BMP_temperature;BMP_pressure;BME280_temperature;BME280_humidity;BME280_pressure;Samples;Min_cycle;Max_cycle;Signal;HPM_P1;HPM_P2
2023/02/13 00:00:00;;;;;;;78.97;61.70;;;;;;;;;;10024794;28;20043;-60
2023/02/13 00:04:56;;;;;;;84.05;62.45;;;;;;;;;;10017383;28;20061;-60
2023/02/13 00:09:48;;;;;;;82.18;62.55;;;;;;;;;;10019357;28;20449;-60
2023/02/13 00:14:41;;;;;;;77.78;60.72;;;;;;;;;;10016294;28;20702;-59
2023/02/13 00:19:35;;;;;;;81.05;60.38;;;;;;;;;;10013461;28;20054;-60
2023/02/13 00:24:28;;;;;;;82.40;60.03;;;;;;;;;;10017371;28;20054;-59
2023/02/13 00:29:21;;;;;;;81.75;61.60;;;;;;;;;;10012757;28;20049;-60
2023/02/13 00:34:16;;;;;;;79.70;60.92;;;;;;;;;;10021875;28;20054;-59
2023/02/13 00:39:11;;;;;;;78.40;59.15;;;;;;;;;;10008263;28;20450;-60
2023/02/13 00:44:04;;;;;;;72.60;55.95;;;;;;;;;;10011725;28;20108;-59
2023/02/13 00:48:58;;;;;;;69.95;52.88;;;;;;;;;;10016818;28;20137;-60
2023/02/13 00:53:52;;;;;;;67.47;51.78;;;;;;;;;;10016973;28;20423;-60
2023/02/13 00:58:44;;;;;;;68.18;51.40;;;;;;;;;;10018412;28;20081;-60
2023/02/13 01:03:37;;;;;;;69.38;52.70;;;;;;;;;;10009260;28;20129;-60
2023/02/13 01:08:30;;;;;;;70.25;54.05;;;;;;;;;;10018222;28;20053;-60
2023/02/13 01:13:23;;;;;;;68.95;49.05;;;;;;;;;;10018077;28;20046;-60
2023/02/13 01:18:19;;;;;;;68.10;51.08;;;;;;;;;;10013098;28;20387;-60
2023/02/13 01:23:12;;;;;;;70.78;51.88;;;;;;;;;;10021827;28;20053;-60
2023/02/13 01:28:05;;;;;;;65.63;50.05;;;;;;;;;;10013552;28;20100;-60
2023/02/13 01:32:59;;;;;;;68.60;52.33;;;;;;;;;;10019864;28;20057;-60
2023/02/13 01:37:53;;;;;;;77.35;55.88;;;;;;;;;;10025051;28;20414;-60
2023/02/13 01:42:45;;;;;;;72.32;54.75;;;;;;;;;;10019580;28;20053;-60
2023/02/13 01:47:41;;;;;;;80.78;59.25;;;;;;;;;;10019970;28;20062;-60
2023/02/13 01:52:38;;;;;;;80.43;56.75;;;;;;;;;;10018871;28;20124;-60
2023/02/13 01:57:32;;;;;;;81.57;54.13;;;;;;;;;;10019280;28;20058;-60
2023/02/13 02:02:25;;;;;;;75.60;53.33;;;;;;;;;;10020089;28;20618;-60
2023/02/13 02:07:38;;;;;;;71.78;51.80;;;;;;;;;;10022650;28;20085;-60
2023/02/13 02:12:42;;;;;;;75.68;56.28;;;;;;;;;;10022138;28;20157;-61
2023/02/13 02:17:37;;;;;;;72.85;52.10;;;;;;;;;;10009265;28;20096;-60
2023/02/13 02:22:46;;;;;;;75.95;55.75;;;;;;;;;;10022457;28;20173;-60
2023/02/13 02:28:26;;;;;;;78.25;55.80;;;;;;;;;;10023793;28;20054;-60
2023/02/13 02:34:07;;;;;;;70.13;53.72;;;;;;;;;;10018110;28;20045;-60
2023/02/13 02:39:17;;;;;;;80.18;55.17;;;;;;;;;;9963118;28;20593;-61
2023/02/13 02:44:25;;;;;;;78.13;54.20;;;;;;;;;;10014632;28;20042;-60
2023/02/13 02:55:05;;;;;;;71.20;54.83;;;;;;;;;;10025934;28;20495;-60
2023/02/13 03:27:09;;;;;;;87.13;56.22;;;;;;;;;;10028435;28;20049;-61
2023/02/13 03:32:26;;;;;;;73.95;53.30;;;;;;;;;;10028354;28;20057;-61
2023/02/13 03:42:47;;;;;;;75.85;56.38;;;;;;;;;;10028433;28;20084;-60
2023/02/13 03:47:42;;;;;;;66.57;52.47;;;;;;;;;;10031510;28;20455;-60
2023/02/13 03:52:35;;;;;;;75.85;55.42;;;;;;;;;;10024110;28;20517;-60
2023/02/13 04:02:49;;;;;;;80.72;56.25;;;;;;;;;;10029794;28;20141;-61
2023/02/13 04:07:41;;;;;;;77.65;55.75;;;;;;;;;;10029456;28;20136;-60
2023/02/13 04:12:47;;;;;;;67.93;51.00;;;;;;;;;;10029269;28;20097;-60
2023/02/13 04:17:44;;;;;;;70.63;50.60;;;;;;;;;;10029477;28;20487;-60
2023/02/13 04:22:44;;;;;;;66.90;47.70;;;;;;;;;;10030406;28;20081;-61
2023/02/13 04:27:38;;;;;;;78.28;52.33;;;;;;;;;;10029987;28;20048;-61
2023/02/13 04:32:31;;;;;;;60.65;46.15;;;;;;;;;;10030591;28;20459;-60
2023/02/13 04:37:24;;;;;;;69.85;49.95;;;;;;;;;;10022178;28;20060;-60
2023/02/13 04:42:17;;;;;;;68.00;48.17;;;;;;;;;;10019997;28;20056;-60
2023/02/13 04:47:10;;;;;;;75.10;50.67;;;;;;;;;;10030673;28;20058;-61
2023/02/13 04:52:05;;;;;;;66.78;49.88;;;;;;;;;;10030607;28;20108;-60
2023/02/13 04:57:00;;;;;;;58.70;45.72;;;;;;;;;;10030718;28;20423;-60
2023/02/13 05:01:53;;;;;;;65.40;46.65;;;;;;;;;;10030325;28;20438;-60
2023/02/13 05:06:47;;;;;;;65.63;49.45;;;;;;;;;;10030542;28;20085;-60
2023/02/13 05:11:40;;;;;;;72.03;49.35;;;;;;;;;;10027087;28;20057;-61
2023/02/13 05:16:34;;;;;;;63.45;44.95;;;;;;;;;;10030625;28;20108;-60
2023/02/13 05:26:39;;;;;;;65.00;47.15;;;;;;;;;;10029935;28;20062;-60
2023/02/13 05:31:33;;;;;;;72.10;48.72;;;;;;;;;;10021170;28;20384;-60
2023/02/13 05:36:27;;;;;;;63.42;46.53;;;;;;;;;;10028795;28;20053;-62
2023/02/13 05:41:20;;;;;;;62.05;45.78;;;;;;;;;;10028877;28;20084;-62
2023/02/13 05:46:13;;;;;;;56.55;42.72;;;;;;;;;;10029250;28;20525;-62
2023/02/13 05:51:07;;;;;;;58.83;40.90;;;;;;;;;;10022698;28;20053;-61
2023/02/13 05:56:01;;;;;;;55.25;41.17;;;;;;;;;;10027875;28;20054;-62
2023/02/13 06:00:57;;;;;;;53.90;42.65;;;;;;;;;;10026780;28;20054;-61
2023/02/13 06:05:52;;;;;;;56.25;40.25;;;;;;;;;;10027895;28;20052;-62
2023/02/13 06:10:48;;;;;;;60.15;44.08;;;;;;;;;;10027176;28;20053;-60
2023/02/13 06:15:41;;;;;;;67.18;44.05;;;;;;;;;;10026527;28;20061;-61
2023/02/13 06:20:34;;;;;;;53.95;41.35;;;;;;;;;;10014382;28;20048;-61
2023/02/13 06:25:27;;;;;;;52.08;41.20;;;;;;;;;;9994726;28;20133;-60
2023/02/13 06:30:22;;;;;;;50.58;38.03;;;;;;;;;;10010472;28;20052;-60
2023/02/13 06:35:17;;;;;;;54.03;38.17;;;;;;;;;;10011771;28;20046;-61
2023/02/13 06:40:10;;;;;;;52.83;40.00;;;;;;;;;;10011249;28;20586;-61
2023/02/13 06:45:04;;;;;;;53.72;40.88;;;;;;;;;;10012754;28;20129;-60
2023/02/13 06:49:58;;;;;;;55.40;42.53;;;;;;;;;;10008270;28;20069;-60
2023/02/13 06:54:52;;;;;;;42.95;34.72;;;;;;;;;;10021577;28;20052;-60
2023/02/13 06:59:45;;;;;;;49.90;35.67;;;;;;;;;;10023963;28;20054;-61
2023/02/13 07:04:38;;;;;;;50.30;38.05;;;;;;;;;;10026183;28;20053;-60
2023/02/13 07:09:32;;;;;;;50.80;38.85;;;;;;;;;;10024446;28;20052;-60
2023/02/13 07:14:26;;;;;;;52.40;38.47;;;;;;;;;;10025114;28;20068;-60
2023/02/13 07:19:20;;;;;;;50.75;38.70;;;;;;;;;;10012011;28;20502;-59
2023/02/13 07:24:14;;;;;;;48.03;37.60;;;;;;;;;;10012767;28;20391;-60
2023/02/13 07:29:07;;;;;;;52.45;37.75;;;;;;;;;;10024711;28;20057;-59
2023/02/13 07:34:04;;;;;;;49.42;35.55;;;;;;;;;;10025360;28;20406;-59
2023/02/13 07:38:57;;;;;;;48.90;34.28;;;;;;;;;;10007091;28;20046;-59
2023/02/13 07:43:50;;;;;;;51.10;33.47;;;;;;;;;;10021380;28;20053;-60
2023/02/13 07:48:45;;;;;;;41.05;29.58;;;;;;;;;;10024940;28;20058;-60
2023/02/13 07:53:38;;;;;;;43.13;32.17;;;;;;;;;;10022150;28;20042;-60
2023/02/13 07:58:31;;;;;;;40.78;29.05;;;;;;;;;;10018055;28;20077;-60
2023/02/13 08:03:24;;;;;;;41.83;31.05;;;;;;;;;;10021676;28;20503;-59
2023/02/13 08:08:18;;;;;;;39.05;30.02;;;;;;;;;;10023007;28;20400;-59
2023/02/13 08:13:13;;;;;;;44.97;31.60;;;;;;;;;;10024370;28;20042;-59
2023/02/13 08:18:06;;;;;;;45.45;32.70;;;;;;;;;;10020935;28;20046;-59
2023/02/13 08:23:07;;;;;;;45.20;33.97;;;;;;;;;;10031468;28;20053;-60
2023/02/13 08:28:00;;;;;;;49.63;35.22;;;;;;;;;;10031226;28;20049;-63
2023/02/13 08:32:54;;;;;;;52.03;38.00;;;;;;;;;;10027363;28;20073;-63
2023/02/13 08:37:48;;;;;;;58.30;46.08;;;;;;;;;;10028949;28;20050;-64
2023/02/13 08:42:42;;;;;;;60.75;47.38;;;;;;;;;;10030583;28;20418;-63
2023/02/13 08:47:36;;;;;;;56.63;46.10;;;;;;;;;;10025591;28;20137;-63
2023/02/13 08:52:29;;;;;;;59.47;47.95;;;;;;;;;;10024595;28;20045;-64
2023/02/13 08:57:23;;;;;;;67.63;55.28;;;;;;;;;;10027168;28;20475;-64
2023/02/13 09:02:16;;;;;;;69.18;52.67;;;;;;;;;;10026404;28;20067;-64
2023/02/13 09:07:11;;;;;;;61.90;51.72;;;;;;;;;;10007935;28;20046;-64
2023/02/13 09:12:05;;;;;;;62.42;50.63;;;;;;;;;;10023335;28;20054;-64
2023/02/13 09:17:00;;;;;;;63.25;50.58;;;;;;;;;;10010681;28;20499;-64
2023/02/13 09:21:54;;;;;;;60.70;49.78;;;;;;;;;;10003738;28;20089;-64
2023/02/13 09:26:48;;;;;;;65.90;53.55;;;;;;;;;;10004082;28;20073;-64
2023/02/13 09:31:43;;;;;;;69.25;54.28;;;;;;;;;;10005419;28;20054;-59
2023/02/13 09:36:36;;;;;;;63.03;52.60;;;;;;;;;;10003172;28;20053;-60
2023/02/13 09:41:40;;;;;;;64.25;52.00;;;;;;;;;;10011270;28;20136;-60
2023/02/13 09:46:38;;;;;;;64.05;52.00;;;;;;;;;;10026936;28;20080;-60
2023/02/13 09:51:32;;;;;;;60.75;48.63;;;;;;;;;;10025083;28;20049;-60
2023/02/13 09:57:01;;;;;;;72.18;52.33;;;;;;;;;;10015578;28;20081;-60
2023/02/13 10:01:56;;;;;;;60.67;52.83;;;;;;;;;;10012623;28;20078;-60
2023/02/13 10:07:23;;;;;;;60.85;53.42;;;;;;;;;;10012535;28;20513;-58
2023/02/13 10:12:39;;;;;;;58.97;52.17;;;;;;;;;;9997030;28;20057;-60
2023/02/13 10:17:35;;;;;;;58.55;52.17;;;;;;;;;;10007918;28;20073;-60
2023/02/13 10:22:49;;;;;;;60.90;52.55;;;;;;;;;;10009247;28;20066;-60
2023/02/13 10:27:49;;;;;;;60.65;50.67;;;;;;;;;;10013298;28;20050;-60
2023/02/13 10:33:17;;;;;;;62.15;48.70;;;;;;;;;;10012316;28;20058;-60
2023/02/13 10:38:17;;;;;;;54.92;48.95;;;;;;;;;;10013955;28;20056;-60
2023/02/13 10:43:14;;;;;;;55.92;49.78;;;;;;;;;;10007724;28;20062;-60
2023/02/13 10:48:20;;;;;;;57.20;48.33;;;;;;;;;;10010368;28;20062;-60
2023/02/13 10:53:46;;;;;;;64.63;54.28;;;;;;;;;;10013015;28;20058;-60
2023/02/13 10:59:01;;;;;;;57.08;48.05;;;;;;;;;;10008400;28;20133;-60
2023/02/13 11:04:03;;;;;;;58.17;47.75;;;;;;;;;;10007105;28;20596;-60
2023/02/13 11:08:56;;;;;;;57.08;47.05;;;;;;;;;;10008714;28;20050;-60
2023/02/13 11:14:08;;;;;;;58.95;49.65;;;;;;;;;;10005096;28;20050;-60
2023/02/13 11:19:01;;;;;;;59.28;49.88;;;;;;;;;;10010958;28;20119;-59
2023/02/13 11:23:57;;;;;;;61.25;49.58;;;;;;;;;;10014219;28;20046;-59
2023/02/13 11:28:59;;;;;;;53.05;46.92;;;;;;;;;;10020367;28;20046;-59
2023/02/13 11:33:53;;;;;;;55.88;44.88;;;;;;;;;;10021674;28;20525;-57
2023/02/13 11:39:23;;;;;;;50.97;41.15;;;;;;;;;;10023076;28;20132;-57
2023/02/13 11:44:25;;;;;;;53.40;42.05;;;;;;;;;;10022628;28;20052;-58
2023/02/13 11:49:19;;;;;;;48.10;40.60;;;;;;;;;;10022671;28;20081;-60
2023/02/13 11:54:28;;;;;;;54.20;40.97;;;;;;;;;;10016299;28;20100;-60
2023/02/13 11:59:42;;;;;;;48.03;39.28;;;;;;;;;;10027351;28;20081;-60
2023/02/13 12:04:35;;;;;;;47.45;35.25;;;;;;;;;;10016786;28;20054;-59
2023/02/13 12:09:28;;;;;;;43.47;32.78;;;;;;;;;;10017459;28;20117;-58
2023/02/13 12:14:27;;;;;;;39.58;32.95;;;;;;;;;;10018550;28;20486;-59
2023/02/13 12:19:24;;;;;;;;;;;;;;;;;;10020813;28;20172;-58
2023/02/13 12:24:44;;;;;;;40.83;28.05;;;;;;;;;;10018658;28;19922;-58
2023/02/13 12:29:58;;;;;;;38.20;29.63;;;;;;;;;;10016851;28;20097;-58
2023/02/13 12:34:59;;;;;;;34.58;26.33;;;;;;;;;;10018470;28;20077;-58
2023/02/13 12:40:37;;;;;;;33.70;24.05;;;;;;;;;;10014762;28;20321;-58
2023/02/13 12:45:36;;;;;;;32.25;24.75;;;;;;;;;;10007930;28;20089;-58
2023/02/13 12:50:52;;;;;;;32.97;26.92;;;;;;;;;;10016500;28;20054;-58
2023/02/13 12:56:08;;;;;;;31.05;23.48;;;;;;;;;;10014052;28;20049;-58
2023/02/13 13:01:18;;;;;;;28.83;21.88;;;;;;;;;;9999720;28;20073;-58
2023/02/13 13:06:25;;;;;;;29.02;21.83;;;;;;;;;;10014932;28;20427;-58
2023/02/13 13:11:51;;;;;;;24.35;19.17;;;;;;;;;;10018650;28;20070;-58
2023/02/13 13:16:44;;;;;;;27.45;19.77;;;;;;;;;;9994950;28;20455;-58
2023/02/13 13:21:43;;;;;;;24.35;18.83;;;;;;;;;;9997559;28;20120;-58
2023/02/13 13:26:40;;;;;;;29.13;20.90;;;;;;;;;;10008117;28;20042;-58
2023/02/13 13:31:35;;;;;;;26.88;21.23;;;;;;;;;;10015922;28;20056;-58
2023/02/13 13:37:00;;;;;;;20.65;16.70;;;;;;;;;;10009722;28;20140;-58
2023/02/13 13:42:15;;;;;;;32.00;19.33;;;;;;;;;;9952923;28;20057;-59
2023/02/13 13:47:19;;;;;;;26.83;18.10;;;;;;;;;;10004764;28;20054;-59
2023/02/13 13:52:29;;;;;;;19.25;15.73;;;;;;;;;;10011198;28;20403;-58
2023/02/13 13:57:40;;;;;;;23.05;17.08;;;;;;;;;;10008895;28;20502;-58
2023/02/13 14:02:43;;;;;;;24.50;17.60;;;;;;;;;;10000104;28;20152;-59
2023/02/13 14:07:42;;;;;;;23.05;17.23;;;;;;;;;;10002654;28;20053;-58
2023/02/13 14:12:37;;;;;;;25.40;17.48;;;;;;;;;;10001773;28;20058;-57
2023/02/13 14:17:44;;;;;;;23.88;16.38;;;;;;;;;;9999900;28;20854;-57
2023/02/13 14:22:39;;;;;;;23.48;17.45;;;;;;;;;;10008861;28;20387;-57
2023/02/13 14:27:36;;;;;;;20.92;16.48;;;;;;;;;;10007812;28;20056;-59
2023/02/13 14:32:33;;;;;;;25.88;18.65;;;;;;;;;;10005517;28;20038;-59
2023/02/13 14:37:38;;;;;;;29.98;18.45;;;;;;;;;;9999641;28;20125;-58
2023/02/13 14:42:33;;;;;;;22.90;18.13;;;;;;;;;;10004864;28;20042;-58
2023/02/13 14:47:43;;;;;;;23.55;17.20;;;;;;;;;;10012762;28;20068;-58
2023/02/13 14:52:41;;;;;;;23.10;18.55;;;;;;;;;;10010273;28;20057;-58
2023/02/13 14:57:38;;;;;;;;;;;;;;;;;;10011378;28;20120;-58
2023/02/13 15:02:34;;;;;;;29.70;17.85;;;;;;;;;;10006698;28;19929;-58
2023/02/13 15:07:44;;;;;;;31.23;20.30;;;;;;;;;;10014332;28;20097;-58
2023/02/13 15:12:38;;;;;;;28.27;18.85;;;;;;;;;;10012100;28;20073;-58
2023/02/13 15:17:42;;;;;;;24.08;18.52;;;;;;;;;;10010588;28;20088;-58
2023/02/13 15:22:46;;;;;;;27.05;19.52;;;;;;;;;;10015389;28;20096;-58
2023/02/13 15:27:42;;;;;;;23.75;17.85;;;;;;;;;;9999409;28;20046;-58
2023/02/13 15:32:36;;;;;;;29.73;19.67;;;;;;;;;;10000132;28;20145;-58
2023/02/13 15:37:30;;;;;;;25.63;17.88;;;;;;;;;;9998931;28;20096;-58
2023/02/13 15:42:23;;;;;;;23.83;17.77;;;;;;;;;;9999447;28;20076;-57
2023/02/13 15:47:22;;;;;;;25.08;18.33;;;;;;;;;;10016407;28;20065;-58
2023/02/13 15:52:31;;;;;;;26.67;19.75;;;;;;;;;;10002725;28;20053;-58
2023/02/13 15:57:25;;;;;;;27.30;19.27;;;;;;;;;;9999950;28;20103;-57
2023/02/13 16:02:21;;;;;;;21.48;16.52;;;;;;;;;;10006947;28;20064;-61
2023/02/13 16:07:15;;;;;;;27.27;20.20;;;;;;;;;;10006518;28;20105;-61
2023/02/13 16:12:27;;;;;;;26.40;20.17;;;;;;;;;;10004635;28;20051;-58
2023/02/13 16:17:32;;;;;;;30.58;18.50;;;;;;;;;;10016396;28;20558;-59
2023/02/13 16:22:32;;;;;;;34.83;20.08;;;;;;;;;;10009261;28;20418;-59
2023/02/13 16:27:27;;;;;;;27.35;19.85;;;;;;;;;;10012627;28;20058;-58
2023/02/13 16:32:26;;;;;;;33.95;21.70;;;;;;;;;;10014468;28;20108;-58
2023/02/13 16:37:46;;;;;;;27.95;20.27;;;;;;;;;;10020665;28;20054;-58
2023/02/13 16:42:39;;;;;;;39.10;22.20;;;;;;;;;;10014292;28;20069;-59
2023/02/13 16:47:33;;;;;;;39.95;21.15;;;;;;;;;;10019263;28;20049;-61
2023/02/13 16:52:27;;;;;;;27.52;21.27;;;;;;;;;;10010251;28;20070;-59
2023/02/13 16:57:23;;;;;;;30.73;18.48;;;;;;;;;;10012198;28;20054;-59
2023/02/13 17:02:18;;;;;;;27.95;20.23;;;;;;;;;;10009390;28;20081;-58
2023/02/13 17:07:26;;;;;;;35.10;23.73;;;;;;;;;;10012656;28;20050;-59
2023/02/13 17:12:20;;;;;;;37.55;25.67;;;;;;;;;;10015065;28;20054;-61
2023/02/13 17:17:19;;;;;;;50.10;31.13;;;;;;;;;;10001366;28;20074;-60
2023/02/13 17:22:47;;;;;;;46.23;30.33;;;;;;;;;;10012887;28;20439;-59
2023/02/13 17:27:40;;;;;;;45.58;28.52;;;;;;;;;;10019356;28;20305;-59
2023/02/13 17:32:34;;;;;;;66.70;29.40;;;;;;;;;;10022717;28;20050;-61
2023/02/13 17:37:28;;;;;;;47.28;27.65;;;;;;;;;;10016502;28;20418;-60
2023/02/13 17:42:22;;;;;;;39.58;26.33;;;;;;;;;;10011053;28;20491;-61
2023/02/13 17:47:16;;;;;;;41.50;25.77;;;;;;;;;;10011102;28;20392;-60
2023/02/13 17:52:17;;;;;;;49.17;27.42;;;;;;;;;;10014604;28;20446;-61
2023/02/13 17:57:12;;;;;;;35.88;26.58;;;;;;;;;;10005620;28;20062;-59
2023/02/13 18:02:21;;;;;;;55.53;37.35;;;;;;;;;;10010103;28;20057;-60
2023/02/13 18:07:17;;;;;;;45.25;27.75;;;;;;;;;;10007040;28;20050;-60
2023/02/13 18:12:15;;;;;;;46.13;29.10;;;;;;;;;;10006553;28;20069;-60
2023/02/13 18:17:08;;;;;;;47.78;34.78;;;;;;;;;;10003468;28;20418;-61
2023/02/13 18:22:02;;;;;;;48.22;30.75;;;;;;;;;;10009497;28;20054;-60
2023/02/13 18:26:55;;;;;;;45.85;30.27;;;;;;;;;;10014700;28;20057;-60
2023/02/13 18:31:51;;;;;;;40.83;28.63;;;;;;;;;;10013915;28;20072;-60
2023/02/13 18:36:44;;;;;;;51.50;33.65;;;;;;;;;;10007974;28;20058;-60
2023/02/13 18:41:39;;;;;;;51.85;35.22;;;;;;;;;;10010613;28;20049;-60
2023/02/13 18:46:33;;;;;;;56.60;37.35;;;;;;;;;;10010072;28;20054;-60
2023/02/13 18:51:26;;;;;;;58.80;36.13;;;;;;;;;;10026893;28;20049;-59
2023/02/13 18:56:21;;;;;;;56.65;39.17;;;;;;;;;;10025748;28;20044;-60
2023/02/13 19:01:18;;;;;;;56.35;42.28;;;;;;;;;;10025318;28;20060;-61
2023/02/13 19:06:13;;;;;;;58.17;35.78;;;;;;;;;;10026423;28;20044;-60
2023/02/13 19:11:13;;;;;;;46.70;32.78;;;;;;;;;;10015852;28;20121;-60
2023/02/13 19:16:09;;;;;;;52.33;35.33;;;;;;;;;;10010893;28;20061;-59
2023/02/13 19:21:04;;;;;;;49.70;31.13;;;;;;;;;;10005673;28;20054;-59
2023/02/13 19:25:58;;;;;;;47.50;34.05;;;;;;;;;;10005612;28;20550;-60
2023/02/13 19:30:51;;;;;;;47.97;33.40;;;;;;;;;;10010341;28;20050;-60
2023/02/13 19:35:44;;;;;;;46.88;35.80;;;;;;;;;;10012057;28;20129;-59
2023/02/13 19:40:37;;;;;;;54.97;40.97;;;;;;;;;;10008783;28;20057;-60
2023/02/13 19:45:31;;;;;;;65.82;42.40;;;;;;;;;;10000777;28;20462;-60
2023/02/13 19:50:24;;;;;;;66.30;43.45;;;;;;;;;;9998817;28;20070;-60
2023/02/13 19:55:20;;;;;;;64.55;42.45;;;;;;;;;;10000792;28;20050;-60
2023/02/13 20:00:16;;;;;;;55.85;42.72;;;;;;;;;;10006680;28;20062;-61
2023/02/13 20:05:10;;;;;;;52.42;38.72;;;;;;;;;;10003815;28;20058;-61
2023/02/13 20:10:08;;;;;;;47.88;35.05;;;;;;;;;;10016131;28;20053;-61
2023/02/13 20:15:04;;;;;;;51.27;33.23;;;;;;;;;;10012402;28;20457;-61
2023/02/13 20:19:58;;;;;;;52.72;38.60;;;;;;;;;;10006861;28;20058;-64
2023/02/13 20:24:50;;;;;;;49.88;36.08;;;;;;;;;;10006353;28;20058;-61
2023/02/13 20:29:44;;;;;;;54.78;40.08;;;;;;;;;;10003431;28;20053;-60
2023/02/13 20:34:37;;;;;;;51.72;36.53;;;;;;;;;;9992668;28;20051;-61
2023/02/13 20:39:49;;;;;;;52.35;35.97;;;;;;;;;;10005774;28;20581;-60
2023/02/13 20:44:43;;;;;;;51.95;36.13;;;;;;;;;;10002584;28;20923;-59
2023/02/13 20:49:37;;;;;;;48.60;33.17;;;;;;;;;;10014217;28;20058;-60
2023/02/13 20:54:31;;;;;;;42.83;31.50;;;;;;;;;;10012871;28;20046;-60
2023/02/13 20:59:24;;;;;;;45.55;32.72;;;;;;;;;;10006995;28;20447;-59
2023/02/13 21:04:19;;;;;;;45.72;32.75;;;;;;;;;;9996553;28;20178;-60
2023/02/13 21:09:13;;;;;;;47.35;32.72;;;;;;;;;;9994371;28;20601;-60
2023/02/13 21:14:07;;;;;;;37.58;28.80;;;;;;;;;;10001367;28;20046;-60
2023/02/13 21:19:04;;;;;;;45.75;30.25;;;;;;;;;;10003334;28;20481;-59
2023/02/13 21:24:01;;;;;;;43.38;28.58;;;;;;;;;;10010534;28;20060;-60
2023/02/13 21:28:54;;;;;;;44.88;30.95;;;;;;;;;;10001688;28;20188;-59
2023/02/13 21:33:48;;;;;;;47.50;32.75;;;;;;;;;;10006971;28;20046;-59
2023/02/13 21:38:42;;;;;;;48.55;32.03;;;;;;;;;;10010065;28;20054;-59
2023/02/13 21:43:39;;;;;;;42.25;32.22;;;;;;;;;;10017322;28;20483;-61
2023/02/13 21:48:32;;;;;;;41.50;31.05;;;;;;;;;;10004631;28;20046;-61
2023/02/13 21:53:24;;;;;;;42.72;29.90;;;;;;;;;;10010645;28;20046;-62
2023/02/13 21:58:17;;;;;;;43.85;31.92;;;;;;;;;;10018463;28;20042;-61
2023/02/13 22:03:10;;;;;;;50.45;33.70;;;;;;;;;;10020328;28;20121;-61
2023/02/13 22:08:09;;;;;;;51.13;39.78;;;;;;;;;;10019985;28;20053;-61
2023/02/13 22:13:02;;;;;;;;;;;;;;;;;;10019640;28;20045;-58
2023/02/13 22:17:56;;;;;;;48.72;35.00;;;;;;;;;;10022069;28;19921;-61
2023/02/13 22:22:50;;;;;;;40.78;31.10;;;;;;;;;;10021194;28;20854;-61
2023/02/13 22:27:47;;;;;;;43.00;31.75;;;;;;;;;;10019239;28;20046;-61
2023/02/13 22:32:40;;;;;;;41.10;29.23;;;;;;;;;;10021460;28;20037;-61
2023/02/13 22:37:36;;;;;;;43.63;30.67;;;;;;;;;;10022474;28;20045;-60
2023/02/13 22:42:32;;;;;;;43.30;29.92;;;;;;;;;;10021569;28;20061;-60
2023/02/13 22:47:26;;;;;;;40.38;26.77;;;;;;;;;;10022201;28;20132;-60
2023/02/13 22:52:21;;;;;;;44.15;30.15;;;;;;;;;;10021564;28;20148;-60
2023/02/13 22:57:15;;;;;;;41.60;27.95;;;;;;;;;;10020934;28;20045;-60
2023/02/13 23:02:08;;;;;;;42.22;29.90;;;;;;;;;;10022202;28;20069;-60
2023/02/13 23:07:01;;;;;;;55.20;40.20;;;;;;;;;;10023581;28;20046;-60
2023/02/13 23:22:17;;;;;;;44.13;33.50;;;;;;;;;;10021313;28;20119;-61
2023/02/13 23:27:11;;;;;;;55.42;35.63;;;;;;;;;;10023353;28;20128;-61
2023/02/13 23:32:04;;;;;;;42.75;31.65;;;;;;;;;;10023358;28;20053;-61
2023/02/13 23:36:58;;;;;;;42.05;33.63;;;;;;;;;;10022962;28;20052;-61
2023/02/13 23:41:51;;;;;;;47.20;33.20;;;;;;;;;;10021266;28;20426;-61
2023/02/13 23:46:45;;;;;;;47.72;31.90;;;;;;;;;;10030614;28;20066;-61
2023/02/13 23:51:39;;;;;;;39.85;31.70;;;;;;;;;;10030720;28;20513;-61
2023/02/13 23:56:32;;;;;;;41.08;31.65;;;;;;;;;;10029952;28;20069;-61
